createdAt,value
2022-09-02T00:00:55.866Z,74.77
2022-09-02T00:01:56.206Z,74.77
2022-09-02T00:02:56.402Z,74.27
2022-09-02T00:03:56.546Z,74.17
2022-09-02T00:04:56.772Z,74.17
2022-09-02T00:05:56.964Z,74.27
2022-09-02T00:06:57.202Z,73.86
2022-09-02T00:07:57.403Z,73.86
2022-09-02T00:08:57.615Z,73.86
2022-09-02T00:09:57.820Z,74.07
2022-09-02T00:10:58.029Z,74.17
2022-09-02T00:11:58.258Z,73.86
2022-09-02T00:12:58.461Z,73.97
2022-09-02T00:13:58.674Z,73.86
2022-09-02T00:14:58.909Z,73.66
2022-09-02T00:15:59.118Z,73.76
2022-09-02T00:16:59.428Z,73.97
2022-09-02T00:17:59.544Z,74.07
2022-09-02T00:18:59.754Z,73.76
2022-09-02T00:19:59.959Z,73.86
2022-09-02T00:21:00.163Z,73.86
2022-09-02T00:22:00.373Z,73.86
2022-09-02T00:23:00.584Z,73.97
2022-09-02T00:24:00.779Z,73.97
2022-09-02T00:25:00.986Z,73.73
2022-09-02T00:26:01.178Z,73.46
2022-09-02T00:27:01.391Z,73.56
2022-09-02T00:28:01.593Z,73.86
2022-09-02T00:29:01.809Z,74.27
2022-09-02T00:30:01.991Z,74.17
2022-09-02T00:31:02.205Z,73.97
2022-09-02T00:32:02.500Z,73.97
2022-09-02T00:33:02.574Z,74.07
2022-09-02T00:34:02.777Z,73.97
2022-09-02T00:35:02.991Z,73.97
2022-09-02T00:36:03.192Z,74.04
2022-09-02T00:37:03.399Z,73.83
2022-09-02T00:38:03.615Z,73.32
2022-09-02T00:39:03.815Z,73.53
2022-09-02T00:40:04.066Z,73.73
2022-09-02T00:41:04.171Z,73.22
2022-09-02T00:42:04.403Z,73.22
2022-09-02T00:43:04.608Z,73.63
2022-09-02T00:44:04.817Z,73.53
2022-09-02T00:45:05.032Z,73.32
2022-09-02T00:46:05.295Z,73.32
2022-09-02T00:47:05.498Z,73.12
2022-09-02T00:48:05.688Z,73.32
2022-09-02T00:49:05.893Z,73.43
2022-09-02T00:50:06.063Z,73.53
2022-09-02T00:51:06.893Z,73.53
2022-09-02T00:52:06.511Z,73.32
2022-09-02T00:53:06.762Z,73.43
2022-09-02T00:54:06.953Z,73.73
2022-09-02T00:55:07.169Z,73.22
2022-09-02T00:56:07.367Z,73.32
2022-09-02T00:57:07.583Z,73.53
2022-09-02T00:58:09.404Z,73.53
2022-09-02T00:59:08.005Z,73.32
2022-09-02T01:00:08.212Z,73.53
2022-09-02T01:01:08.570Z,73.12
2022-09-02T01:02:08.799Z,73.43
2022-09-02T01:03:08.909Z,73.63
2022-09-02T01:04:09.111Z,73.63
2022-09-02T01:05:09.314Z,73.83
2022-09-02T01:06:09.585Z,73.53
2022-09-02T01:07:09.821Z,73.22
2022-09-02T01:08:10.031Z,73.63
2022-09-02T01:09:10.247Z,73.32
2022-09-02T01:10:10.607Z,73.53
2022-09-02T01:11:10.727Z,73.63
2022-09-02T01:12:10.955Z,73.43
2022-09-02T01:13:11.167Z,73.53
2022-09-02T01:14:11.357Z,73.63
2022-09-02T01:15:12.497Z,73.22
2022-09-02T01:16:11.859Z,73.12
2022-09-02T01:17:12.076Z,73.02
2022-09-02T01:18:12.287Z,73.32
2022-09-02T01:19:12.489Z,73.43
2022-09-02T01:20:12.685Z,73.63
2022-09-02T01:21:12.901Z,73.53
2022-09-02T01:22:13.103Z,73.43
2022-09-02T01:23:13.382Z,73.43
2022-09-02T01:24:13.506Z,73.02
2022-09-02T01:25:13.722Z,73.63
2022-09-02T01:26:13.915Z,73.53
2022-09-02T01:27:14.140Z,73.53
2022-09-02T01:28:14.363Z,73.43
2022-09-02T01:29:14.569Z,73.53
2022-09-02T01:30:14.761Z,73.32
2022-09-02T01:31:15.029Z,73.22
2022-09-02T01:32:15.124Z,73.12
2022-09-02T01:33:15.328Z,73.43
2022-09-02T01:34:15.498Z,73.53
2022-09-02T01:35:15.708Z,73.02
2022-09-02T01:36:15.904Z,73.32
2022-09-02T01:37:16.151Z,73.43
2022-09-02T01:38:16.361Z,73.63
2022-09-02T01:39:16.552Z,73.73
2022-09-02T01:40:16.911Z,73.22
2022-09-02T01:41:16.964Z,73.32
2022-09-02T01:42:17.182Z,73.53
2022-09-02T01:43:17.445Z,73.73
2022-09-02T01:44:17.549Z,73.22
2022-09-02T01:45:17.738Z,73.46
2022-09-02T01:46:17.975Z,73.66
2022-09-02T01:47:18.167Z,73.56
2022-09-02T01:48:21.812Z,73.05
2022-09-02T01:49:18.593Z,73.46
2022-09-02T01:50:18.801Z,73.46
2022-09-02T01:51:18.990Z,73.25
2022-09-02T01:52:19.203Z,73.90
2022-09-02T01:53:19.461Z,74.00
2022-09-02T01:54:19.634Z,73.70
2022-09-02T01:55:19.833Z,74.10
2022-09-02T01:56:20.032Z,74.51
2022-09-02T01:57:20.249Z,74.30
2022-09-02T01:58:20.449Z,74.30
2022-09-02T01:59:20.652Z,74.51
2022-09-02T02:00:20.852Z,74.41
2022-09-02T02:01:21.115Z,74.71
2022-09-02T02:02:21.384Z,74.85
2022-09-02T02:03:21.584Z,74.85
2022-09-02T02:04:21.714Z,75.15
2022-09-02T02:05:21.908Z,74.95
2022-09-02T02:06:22.120Z,75.15
2022-09-02T02:07:22.387Z,74.95
2022-09-02T02:08:22.500Z,74.74
2022-09-02T02:09:22.688Z,74.85
2022-09-02T02:10:22.900Z,74.74
2022-09-02T02:11:23.099Z,74.85
2022-09-02T02:12:23.318Z,75.15
2022-09-02T02:13:23.666Z,75.25
2022-09-02T02:14:23.737Z,75.19
2022-09-02T02:16:02.226Z,75.49
2022-09-02T02:17:02.348Z,75.49
2022-09-02T02:18:02.516Z,76.00
2022-09-02T02:19:02.674Z,76.00
2022-09-02T02:20:02.818Z,75.79
2022-09-02T02:21:02.976Z,75.90
2022-09-02T02:22:03.142Z,75.70
2022-09-02T02:23:03.309Z,76.00
2022-09-02T02:24:03.456Z,75.90
2022-09-02T02:25:03.606Z,76.10
2022-09-02T02:26:03.784Z,76.31
2022-09-02T02:27:03.939Z,76.34
2022-09-02T02:28:04.099Z,76.51
2022-09-02T02:29:04.285Z,76.71
2022-09-02T02:30:04.437Z,76.40
2022-09-02T02:31:04.642Z,76.85
2022-09-02T02:32:04.784Z,76.95
2022-09-02T02:33:04.955Z,77.05
2022-09-02T02:34:05.114Z,77.25
2022-09-02T02:35:05.259Z,77.25
2022-09-02T02:36:05.425Z,77.05
2022-09-02T02:37:05.581Z,77.25
2022-09-02T02:38:05.759Z,77.45
2022-09-02T02:39:05.926Z,77.56
2022-09-02T02:40:06.139Z,77.56
2022-09-02T02:41:06.317Z,77.76
2022-09-02T02:42:06.468Z,77.76
2022-09-02T02:43:06.658Z,77.66
2022-09-02T02:44:06.837Z,77.56
2022-09-02T02:45:06.983Z,77.56
2022-09-02T02:46:07.252Z,77.97
2022-09-02T02:47:07.296Z,77.86
2022-09-02T02:48:07.466Z,77.56
2022-09-02T02:49:07.633Z,78.10
2022-09-02T02:50:07.782Z,78.10
2022-09-02T02:51:07.950Z,78.20
2022-09-02T02:52:08.126Z,78.51
2022-09-02T02:53:08.302Z,78.51
2022-09-02T02:54:08.451Z,78.51
2022-09-02T02:55:08.608Z,78.41
2022-09-02T02:56:08.761Z,78.51
2022-09-02T02:57:08.912Z,78.61
2022-09-02T02:58:09.093Z,78.61
2022-09-02T02:59:09.251Z,78.61
2022-09-02T03:00:09.411Z,78.91
2022-09-02T03:01:09.585Z,78.61
2022-09-02T03:02:09.849Z,78.81
2022-09-02T03:03:09.966Z,78.41
2022-09-02T03:04:10.033Z,78.91
2022-09-02T03:05:10.180Z,78.71
2022-09-02T03:06:10.335Z,79.02
2022-09-02T03:07:10.491Z,78.71
2022-09-02T03:08:10.669Z,79.02
2022-09-02T03:09:10.825Z,79.02
2022-09-02T03:10:10.987Z,78.91
2022-09-02T03:11:11.161Z,79.32
2022-09-02T03:12:11.312Z,79.16
2022-09-02T03:13:11.476Z,79.52
2022-09-02T03:14:11.619Z,79.16
2022-09-02T03:15:11.788Z,79.25
2022-09-02T03:16:11.989Z,79.56
2022-09-02T03:17:18.606Z,79.77
2022-09-02T03:18:12.231Z,79.86
2022-09-02T03:19:12.376Z,79.86
2022-09-02T03:20:12.539Z,79.97
2022-09-02T03:21:12.698Z,79.66
2022-09-02T03:22:12.860Z,80.17
2022-09-02T03:23:13.039Z,79.97
2022-09-02T03:24:13.185Z,80.37
2022-09-02T03:25:13.344Z,80.07
2022-09-02T03:26:13.496Z,80.37
2022-09-02T03:27:13.655Z,80.37
2022-09-02T03:28:13.847Z,80.17
2022-09-02T03:29:13.997Z,80.47
2022-09-02T03:30:14.145Z,80.17
2022-09-02T03:31:14.360Z,80.47
2022-09-02T03:32:14.843Z,80.88
2022-09-02T03:33:14.578Z,80.58
2022-09-02T03:34:14.735Z,80.58
2022-09-02T03:35:14.885Z,80.72
2022-09-02T03:36:15.045Z,80.82
2022-09-02T03:37:15.197Z,80.82
2022-09-02T03:38:15.354Z,81.02
2022-09-02T03:39:15.504Z,80.72
2022-09-02T03:40:15.703Z,80.41
2022-09-02T03:41:15.865Z,80.62
2022-09-02T03:42:19.827Z,80.92
2022-09-02T03:43:16.154Z,81.12
2022-09-02T03:44:16.347Z,81.23
2022-09-02T03:45:16.526Z,80.92
2022-09-02T03:46:16.799Z,81.02
2022-09-02T03:47:16.895Z,81.12
2022-09-02T03:48:17.059Z,81.23
2022-09-02T03:49:17.138Z,81.43
2022-09-02T03:50:17.329Z,81.43
2022-09-02T03:51:17.525Z,81.33
2022-09-02T03:52:17.731Z,81.33
2022-09-02T03:53:19.605Z,81.84
2022-09-02T03:54:18.093Z,81.53
2022-09-02T03:55:18.301Z,81.43
2022-09-02T03:56:18.387Z,81.84
2022-09-02T03:57:18.576Z,81.63
2022-09-02T03:58:18.753Z,81.73
2022-09-02T03:59:18.912Z,81.73
2022-09-02T04:00:19.061Z,81.73
2022-09-02T04:01:19.274Z,81.73
2022-09-02T04:02:19.505Z,81.93
2022-09-02T04:03:19.663Z,81.73
2022-09-02T04:04:22.759Z,81.63
2022-09-02T04:05:19.860Z,81.93
2022-09-02T04:06:20.019Z,81.93
2022-09-02T04:07:20.173Z,82.04
2022-09-02T04:08:20.340Z,82.24
2022-09-02T04:09:20.499Z,82.04
2022-09-02T04:10:20.649Z,81.84
2022-09-02T04:11:20.810Z,81.93
2022-09-02T04:12:20.981Z,82.04
2022-09-02T04:13:21.291Z,82.04
2022-09-02T04:14:21.296Z,81.93
2022-09-02T04:15:21.453Z,81.93
2022-09-02T04:16:21.690Z,81.93
2022-09-02T04:17:21.907Z,82.04
2022-09-02T04:18:21.970Z,81.93
2022-09-02T04:19:22.122Z,82.14
2022-09-02T04:20:22.289Z,82.14
2022-09-02T04:21:22.469Z,82.04
2022-09-02T04:22:22.619Z,82.04
2022-09-02T04:23:22.965Z,82.38
2022-09-02T04:24:22.919Z,82.34
2022-09-02T04:25:27.660Z,82.34
2022-09-02T04:26:23.215Z,82.38
2022-09-02T04:27:23.377Z,82.18
2022-09-02T04:28:23.572Z,82.48
2022-09-02T04:29:23.730Z,82.65
2022-09-02T04:30:23.886Z,82.14
2022-09-02T04:31:24.110Z,82.24
2022-09-02T04:32:24.247Z,81.84
2022-09-02T04:33:24.422Z,81.84
2022-09-02T04:34:24.633Z,81.93
2022-09-02T04:35:24.778Z,81.93
2022-09-02T04:36:24.936Z,82.04
2022-09-02T04:37:25.170Z,81.84
2022-09-02T04:38:25.335Z,81.73
2022-09-02T04:39:25.484Z,82.04
2022-09-02T04:40:25.684Z,81.84
2022-09-02T04:41:25.814Z,81.93
2022-09-02T04:43:18.710Z,81.63
2022-09-02T04:44:18.803Z,81.73
2022-09-02T04:45:18.973Z,81.84
2022-09-02T04:46:19.150Z,81.43
2022-09-02T04:47:20.285Z,81.84
2022-09-02T04:48:19.441Z,81.93
2022-09-02T04:49:19.742Z,81.63
2022-09-02T04:50:19.841Z,81.73
2022-09-02T04:51:20.550Z,81.43
2022-09-02T04:52:20.378Z,81.79
2022-09-02T04:53:20.493Z,81.39
2022-09-02T04:54:20.533Z,81.19
2022-09-02T04:55:20.704Z,81.49
2022-09-02T04:56:20.932Z,81.19
2022-09-02T04:57:21.028Z,81.19
2022-09-02T04:58:21.220Z,80.98
2022-09-02T04:59:21.395Z,81.05
2022-09-02T05:00:21.552Z,80.64
2022-09-02T05:01:21.761Z,80.74
2022-09-02T05:02:22.004Z,80.94
2022-09-02T05:03:22.140Z,80.44
2022-09-02T05:04:22.219Z,80.33
2022-09-02T05:05:22.469Z,80.10
2022-09-02T05:06:22.519Z,79.99
2022-09-02T05:07:22.684Z,79.99
2022-09-02T05:08:22.880Z,79.79
2022-09-02T05:09:23.051Z,79.49
2022-09-02T05:10:23.249Z,79.49
2022-09-02T05:11:24.007Z,79.38
2022-09-02T05:12:23.631Z,79.08
2022-09-02T05:13:23.952Z,79.35
2022-09-02T05:14:23.989Z,79.04
2022-09-02T05:15:24.167Z,78.94
2022-09-02T05:16:24.378Z,78.13
2022-09-02T05:17:24.567Z,78.57
2022-09-02T05:18:24.719Z,78.74
2022-09-02T05:19:24.878Z,79.25
2022-09-02T05:20:25.087Z,79.04
2022-09-02T05:21:25.262Z,78.74
2022-09-02T05:22:25.435Z,78.53
2022-09-02T05:23:25.625Z,78.53
2022-09-02T05:24:26.832Z,78.33
2022-09-02T05:25:25.976Z,78.44
2022-09-02T05:26:26.177Z,78.44
2022-09-02T05:27:26.847Z,78.13
2022-09-02T05:28:26.517Z,78.23
2022-09-02T05:29:26.686Z,78.44
2022-09-02T05:30:26.845Z,78.64
2022-09-02T05:31:27.088Z,77.93
2022-09-02T05:32:27.128Z,78.03
2022-09-02T05:33:27.276Z,77.83
2022-09-02T05:34:27.433Z,77.89
2022-09-02T05:35:27.590Z,77.99
2022-09-02T05:36:27.894Z,77.69
2022-09-02T05:37:27.946Z,78.66
2022-09-02T05:38:28.105Z,78.46
2022-09-02T05:39:28.265Z,78.06
2022-09-02T05:40:28.968Z,78.53
2022-09-02T05:41:28.572Z,78.12
2022-09-02T05:42:28.741Z,77.31
2022-09-02T05:43:28.918Z,76.40
2022-09-02T05:44:29.054Z,76.60
2022-09-02T05:45:29.206Z,76.90
2022-09-02T05:46:29.467Z,77.01
2022-09-02T05:47:29.661Z,76.56
2022-09-02T05:48:29.743Z,76.87
2022-09-02T05:49:29.912Z,76.06
2022-09-02T05:50:30.080Z,75.45
2022-09-02T05:51:30.183Z,75.25
2022-09-02T05:52:30.343Z,74.84
2022-09-02T05:53:30.512Z,75.45
2022-09-02T05:54:30.691Z,75.35
2022-09-02T05:55:30.842Z,75.76
2022-09-02T05:56:31.050Z,75.18
2022-09-02T05:57:31.228Z,75.49
2022-09-02T05:58:31.387Z,75.59
2022-09-02T05:59:31.601Z,75.69
2022-09-02T06:00:31.764Z,75.59
2022-09-02T06:01:31.993Z,76.20
2022-09-02T06:02:32.213Z,75.55
2022-09-02T06:03:32.273Z,75.76
2022-09-02T06:04:32.546Z,74.64
2022-09-02T06:05:32.675Z,75.45
2022-09-02T06:06:32.746Z,75.55
2022-09-02T06:07:32.925Z,74.74
2022-09-02T06:08:33.127Z,75.45
2022-09-02T06:09:33.346Z,75.04
2022-09-02T06:10:33.424Z,75.15
2022-09-02T06:11:33.635Z,75.28
2022-09-02T06:12:33.677Z,75.38
2022-09-02T06:13:33.831Z,75.38
2022-09-02T06:14:34.062Z,75.89
2022-09-02T06:15:34.282Z,75.89
2022-09-02T06:16:34.493Z,76.09
2022-09-02T06:17:34.578Z,75.69
2022-09-02T06:18:34.989Z,76.09
2022-09-02T06:19:34.887Z,75.55
2022-09-02T06:20:35.065Z,75.45
2022-09-02T06:21:35.251Z,75.45
2022-09-02T06:22:35.415Z,75.25
2022-09-02T06:23:35.591Z,75.45
2022-09-02T06:24:35.762Z,75.25
2022-09-02T06:25:35.919Z,75.72
2022-09-02T06:26:36.090Z,75.11
2022-09-02T06:27:36.286Z,75.21
2022-09-02T06:28:36.471Z,73.96
2022-09-02T06:29:36.632Z,73.56
2022-09-02T06:30:36.868Z,74.27
2022-09-02T06:31:36.908Z,74.16
2022-09-02T06:32:37.069Z,73.93
2022-09-02T06:33:37.240Z,72.08
2022-09-02T06:34:37.595Z,71.91
2022-09-02T06:35:37.550Z,69.85
2022-09-02T06:36:37.759Z,69.24
2022-09-02T06:37:37.936Z,69.55
2022-09-02T06:38:40.562Z,69.89
2022-09-02T06:39:38.246Z,71.30
2022-09-02T06:40:38.495Z,71.00
2022-09-02T06:41:38.578Z,71.23
2022-09-02T06:42:38.707Z,71.40
2022-09-02T06:43:42.773Z,70.62
2022-09-02T06:44:38.974Z,71.20
2022-09-02T06:45:39.119Z,70.83
2022-09-02T06:46:39.348Z,71.23
2022-09-02T06:47:39.430Z,71.13
2022-09-02T06:48:39.569Z,71.23
2022-09-02T06:49:39.728Z,71.53
2022-09-02T06:50:39.878Z,71.03
2022-09-02T06:51:40.050Z,71.94
2022-09-02T06:52:40.205Z,70.93
2022-09-02T06:53:40.348Z,71.13
2022-09-02T06:54:40.495Z,71.44
2022-09-02T06:55:40.641Z,71.80
2022-09-02T06:56:40.798Z,70.49
2022-09-02T06:57:41.058Z,70.56
2022-09-02T06:58:41.121Z,70.49
2022-09-02T06:59:41.265Z,71.80
2022-09-02T07:00:41.413Z,71.40
2022-09-02T07:01:41.675Z,70.46
2022-09-02T07:02:41.687Z,69.85
2022-09-02T07:03:41.830Z,69.72
2022-09-02T07:04:41.975Z,69.68
2022-09-02T07:05:42.125Z,68.51
2022-09-02T07:06:42.315Z,65.59
2022-09-02T07:07:42.468Z,63.56
2022-09-02T07:08:42.601Z,61.50
2022-09-02T07:09:42.742Z,60.74
2022-09-02T07:10:42.884Z,58.98
2022-09-02T07:11:43.091Z,57.95
2022-09-02T07:12:44.418Z,56.67
2022-09-02T07:13:43.253Z,54.96
2022-09-02T07:14:43.400Z,52.12
2022-09-02T07:15:43.665Z,52.29
2022-09-02T07:16:43.760Z,51.42
2022-09-02T07:17:43.899Z,52.34
2022-09-02T07:18:44.040Z,52.97
2022-09-02T07:19:44.101Z,52.57
2022-09-02T07:20:44.227Z,53.02
2022-09-02T07:21:44.405Z,51.95
2022-09-02T07:22:44.470Z,52.37
2022-09-02T07:23:44.603Z,53.06
2022-09-02T07:24:44.726Z,53.06
2022-09-02T07:25:44.856Z,53.14
2022-09-02T07:26:45.019Z,52.51
2022-09-02T07:27:45.035Z,51.75
2022-09-02T07:28:45.216Z,50.45
2022-09-02T07:29:45.326Z,50.85
2022-09-02T07:30:45.427Z,50.87
2022-09-02T07:31:45.457Z,51.72
2022-09-02T07:32:45.554Z,51.20
2022-09-02T07:33:45.665Z,51.65
2022-09-02T07:34:45.722Z,50.70
2022-09-02T07:35:45.953Z,53.34
2022-09-02T07:36:46.226Z,53.81
2022-09-02T07:37:46.015Z,57.22
2022-09-02T07:38:46.250Z,54.77
2022-09-02T07:39:46.260Z,54.61
2022-09-02T07:40:46.389Z,53.29
2022-09-02T07:41:46.532Z,52.76
2022-09-02T07:42:46.621Z,52.74
2022-09-02T07:43:49.657Z,52.72
2022-09-02T07:44:47.637Z,51.75
2022-09-02T07:45:46.758Z,50.13
2022-09-02T07:46:47.007Z,49.38
2022-09-02T07:47:46.895Z,48.52
2022-09-02T07:48:46.997Z,47.83
2022-09-02T07:50:48.134Z,47.23
2022-09-02T07:51:47.245Z,47.55
2022-09-02T07:52:47.347Z,50.05
2022-09-02T07:53:47.437Z,52.72
2022-09-02T07:54:47.524Z,52.04
2022-09-02T07:55:47.843Z,53.69
2022-09-02T07:56:47.707Z,52.25
2022-09-02T07:57:47.818Z,52.59
2022-09-02T07:58:47.935Z,51.67
2022-09-02T07:59:48.084Z,49.63
2022-09-02T08:00:48.180Z,48.99
2022-09-02T08:01:48.209Z,48.84
2022-09-02T08:02:48.406Z,47.83
2022-09-02T08:03:48.356Z,47.88
2022-09-02T08:04:48.482Z,46.25
2022-09-02T08:05:48.583Z,46.12
2022-09-02T08:06:48.755Z,45.93
2022-09-02T08:07:48.768Z,44.84
2022-09-02T08:08:48.883Z,45.38
2022-09-02T08:09:48.974Z,45.97
2022-09-02T08:10:49.191Z,46.51
2022-09-02T08:11:50.269Z,46.71
2022-09-02T08:12:49.275Z,47.36
2022-09-02T08:13:49.925Z,46.17
2022-09-02T08:14:50.063Z,47.68
2022-09-02T08:15:50.869Z,46.19
2022-09-02T08:16:49.678Z,47.46
2022-09-02T08:17:51.154Z,46.86
2022-09-02T08:18:49.653Z,47.56
2022-09-02T08:19:49.735Z,47.19
2022-09-02T08:20:49.819Z,47.26
2022-09-02T08:21:49.917Z,44.89
2022-09-02T08:22:59.266Z,46.30
2022-09-02T08:23:51.044Z,47.80
2022-09-02T08:24:50.119Z,47.03
2022-09-02T08:25:50.197Z,46.89
2022-09-02T08:26:50.296Z,45.30
2022-09-02T08:27:50.421Z,45.92
2022-09-02T08:28:50.454Z,46.83
2022-09-02T08:29:50.556Z,46.31
2022-09-02T08:30:50.647Z,46.04
2022-09-02T08:31:53.515Z,46.73
2022-09-02T08:32:50.727Z,45.72
2022-09-02T08:33:50.988Z,45.82
2022-09-02T08:34:50.812Z,46.04
2022-09-02T08:35:50.878Z,46.73
2022-09-02T08:36:57.042Z,46.14
2022-09-02T08:37:51.974Z,48.00
2022-09-02T08:38:51.067Z,45.82
2022-09-02T08:39:51.148Z,45.70
2022-09-02T08:40:51.317Z,45.70
2022-09-02T08:41:51.283Z,45.79
2022-09-02T08:42:51.920Z,45.68
2022-09-02T08:43:51.269Z,46.57
2022-09-02T08:44:51.338Z,44.49
2022-09-02T08:45:51.435Z,45.00
2022-09-02T08:46:51.449Z,46.98
2022-09-02T08:47:51.398Z,46.89
2022-09-02T08:48:51.465Z,45.32
2022-09-02T08:49:51.521Z,46.22
2022-09-02T08:50:51.614Z,45.34
2022-09-02T08:51:53.351Z,47.43
2022-09-02T08:52:51.739Z,46.69
2022-09-02T08:53:51.819Z,44.96
2022-09-02T08:54:51.880Z,45.21
2022-09-02T08:55:51.930Z,43.55
2022-09-02T08:56:51.997Z,44.84
2022-09-02T08:57:52.054Z,44.15
2022-09-02T08:58:52.019Z,44.56
2022-09-02T08:59:53.196Z,44.86
2022-09-02T09:00:52.157Z,43.77
2022-09-02T09:01:52.142Z,45.14
2022-09-02T09:02:52.214Z,44.05
2022-09-02T09:03:52.124Z,43.26
2022-09-02T09:04:52.155Z,44.49
2022-09-02T09:05:52.202Z,45.10
2022-09-02T09:06:52.300Z,45.10
2022-09-02T09:07:52.244Z,45.20
2022-09-02T09:08:52.282Z,44.46
2022-09-02T09:09:52.314Z,45.23
2022-09-02T09:10:52.355Z,43.13
2022-09-02T09:11:52.439Z,42.74
2022-09-02T09:12:52.355Z,43.60
2022-09-02T09:13:52.392Z,44.29
2022-09-02T09:14:52.452Z,44.78
2022-09-02T09:15:52.562Z,45.05
2022-09-02T09:16:52.529Z,44.93
2022-09-02T09:17:52.483Z,44.51
2022-09-02T09:18:52.524Z,44.15
2022-09-02T09:19:52.572Z,43.12
2022-09-02T09:20:52.614Z,42.52
2022-09-02T09:21:52.653Z,42.82
2022-09-02T09:22:52.688Z,42.40
2022-09-02T09:23:52.733Z,42.48
2022-09-02T09:24:52.771Z,42.01
2022-09-02T09:25:52.812Z,42.40
2022-09-02T09:26:52.867Z,41.57
2022-09-02T09:27:52.882Z,41.17
2022-09-02T09:28:52.926Z,40.27
2022-09-02T09:29:52.964Z,39.89
2022-09-02T09:30:52.986Z,40.31
2022-09-02T09:31:53.115Z,39.79
2022-09-02T09:32:53.012Z,39.11
2022-09-02T09:33:53.054Z,39.03
2022-09-02T09:34:53.088Z,40.84
2022-09-02T09:35:53.139Z,41.73
2022-09-02T09:36:53.051Z,41.16
2022-09-02T09:37:53.087Z,40.55
2022-09-02T09:38:53.166Z,40.69
2022-09-02T09:39:53.054Z,38.96
2022-09-02T09:40:53.099Z,38.83
2022-09-02T09:41:53.151Z,37.96
2022-09-02T09:42:53.115Z,37.59
2022-09-02T09:43:53.043Z,39.17
2022-09-02T09:44:53.061Z,39.15
2022-09-02T09:45:53.159Z,36.74
2022-09-02T09:46:53.106Z,35.96
2022-09-02T09:47:53.136Z,35.89
2022-09-02T09:48:54.105Z,37.19
2022-09-02T09:49:53.129Z,38.06
2022-09-02T09:50:53.130Z,38.57
2022-09-02T09:51:53.137Z,39.26
2022-09-02T09:52:53.175Z,38.57
2022-09-02T09:53:53.072Z,39.43
2022-09-02T09:54:53.090Z,38.25
2022-09-02T09:55:53.116Z,38.75
2022-09-02T09:56:53.152Z,37.96
2022-09-02T09:57:53.129Z,38.84
2022-09-02T09:58:53.148Z,38.96
2022-09-02T09:59:53.156Z,38.96
2022-09-02T10:00:53.214Z,38.65
2022-09-02T10:01:53.137Z,38.86
2022-09-02T10:02:53.064Z,38.67
2022-09-02T10:03:52.984Z,38.49
2022-09-02T10:04:52.995Z,38.96
2022-09-02T10:05:53.018Z,39.93
2022-09-02T10:06:53.038Z,39.28
2022-09-02T10:07:53.045Z,36.76
2022-09-02T10:08:53.069Z,36.29
2022-09-02T10:09:52.956Z,36.60
2022-09-02T10:10:52.974Z,36.71
2022-09-02T10:11:53.007Z,38.10
2022-09-02T10:12:53.044Z,37.72
2022-09-02T10:13:52.943Z,37.66
2022-09-02T10:14:52.946Z,38.65
2022-09-02T10:15:52.967Z,38.06
2022-09-02T10:16:53.035Z,36.24
2022-09-02T10:17:52.913Z,36.32
2022-09-02T10:18:52.929Z,37.41
2022-09-02T10:19:52.966Z,36.83
2022-09-02T10:21:53.829Z,40.03
2022-09-02T10:23:00.010Z,40.96
2022-09-02T10:23:53.838Z,42.58
2022-09-02T10:24:52.774Z,43.79
2022-09-02T10:25:52.811Z,45.18
2022-09-02T10:26:52.850Z,43.40
2022-09-02T10:27:52.892Z,42.37
2022-09-02T10:28:52.955Z,41.89
2022-09-02T10:29:52.990Z,42.37
2022-09-02T10:30:53.056Z,42.91
2022-09-02T10:31:53.058Z,43.36
2022-09-02T10:32:52.999Z,40.34
2022-09-02T10:33:53.059Z,39.63
2022-09-02T10:34:53.106Z,39.42
2022-09-02T10:35:53.149Z,38.78
2022-09-02T10:36:53.181Z,37.81
2022-09-02T10:37:53.147Z,39.06
2022-09-02T10:38:53.201Z,39.67
2022-09-02T10:39:53.249Z,39.49
2022-09-02T10:40:53.385Z,40.50
2022-09-02T10:41:53.271Z,40.82
2022-09-02T10:42:53.333Z,41.34
2022-09-02T10:43:57.188Z,41.87
2022-09-02T10:44:55.730Z,43.03
2022-09-02T10:45:54.512Z,43.60
2022-09-02T10:46:53.590Z,41.74
2022-09-02T10:47:53.663Z,41.20
2022-09-02T10:48:53.733Z,39.89
2022-09-02T10:49:53.796Z,41.14
2022-09-02T10:50:53.871Z,40.98
2022-09-02T10:51:54.098Z,41.38
2022-09-02T10:52:53.971Z,41.67
2022-09-02T10:53:54.038Z,42.71
2022-09-02T10:54:54.974Z,42.07
2022-09-02T10:55:54.171Z,41.39
2022-09-02T10:56:54.237Z,39.14
2022-09-02T10:57:54.317Z,38.11
2022-09-02T10:58:54.442Z,37.16
2022-09-02T10:59:54.381Z,35.40
2022-09-02T11:00:54.529Z,36.10
2022-09-02T11:01:54.476Z,34.74
2022-09-02T11:02:54.525Z,34.23
2022-09-02T11:03:54.589Z,33.94
2022-09-02T11:04:55.000Z,34.13
2022-09-02T11:05:54.487Z,32.85
2022-09-02T11:07:03.269Z,31.45
2022-09-02T11:07:55.527Z,31.92
2022-09-02T11:08:54.433Z,32.00
2022-09-02T11:09:54.446Z,32.42
2022-09-02T11:10:54.475Z,32.95
2022-09-02T11:11:57.050Z,33.87
2022-09-02T11:12:54.535Z,33.85
2022-09-02T11:13:54.545Z,33.92
2022-09-02T11:14:54.502Z,34.18
2022-09-02T11:15:54.620Z,32.49
2022-09-02T11:16:54.540Z,33.98
2022-09-02T11:17:54.536Z,34.01
2022-09-02T11:18:54.523Z,33.61
2022-09-02T11:19:54.550Z,32.72
2022-09-02T11:20:54.691Z,34.39
2022-09-02T11:21:54.501Z,31.51
2022-09-02T11:22:54.607Z,31.72
2022-09-02T11:23:54.498Z,33.16
2022-09-02T11:24:54.510Z,33.79
2022-09-02T11:25:54.506Z,34.50
2022-09-02T11:26:54.520Z,36.46
2022-09-02T11:27:54.562Z,37.72
2022-09-02T11:28:54.553Z,40.06
2022-09-02T11:29:54.584Z,41.02
2022-09-02T11:30:54.641Z,42.03
2022-09-02T11:31:54.661Z,42.65
2022-09-02T11:32:54.711Z,43.75
2022-09-02T11:33:54.773Z,44.46
2022-09-02T11:34:54.817Z,44.54
2022-09-02T11:35:54.882Z,45.12
2022-09-02T11:36:54.963Z,44.31
2022-09-02T11:37:55.031Z,43.51
2022-09-02T11:38:55.104Z,43.98
2022-09-02T11:40:11.173Z,43.38
2022-09-02T11:41:56.218Z,42.85
2022-09-02T11:42:55.282Z,43.97
2022-09-02T11:44:55.387Z,43.87
2022-09-02T11:45:55.520Z,44.17
2022-09-02T11:46:55.541Z,44.87
2022-09-02T11:47:55.597Z,44.37
2022-09-02T11:48:55.698Z,43.99
2022-09-02T11:49:55.803Z,43.81
2022-09-02T11:50:55.930Z,43.41
2022-09-02T11:51:56.034Z,43.81
2022-09-02T11:52:56.136Z,43.39
2022-09-02T11:53:56.352Z,42.37
2022-09-02T11:54:59.458Z,42.93
2022-09-02T11:55:57.327Z,39.27
2022-09-02T11:56:56.413Z,38.12
2022-09-02T11:57:56.498Z,36.77
2022-09-02T11:58:56.511Z,36.03
2022-09-02T11:59:56.582Z,34.15
2022-09-02T12:00:56.648Z,32.65
2022-09-02T12:01:56.715Z,32.84
2022-09-02T12:02:56.738Z,33.03
2022-09-02T12:05:00.250Z,32.64
2022-09-02T12:05:56.883Z,33.03
2022-09-02T12:06:56.874Z,32.21
2022-09-02T12:07:56.810Z,31.88
2022-09-02T12:08:56.829Z,32.42
2022-09-02T12:09:56.950Z,32.64
2022-09-02T12:10:56.849Z,33.23
2022-09-02T12:11:56.883Z,34.38
2022-09-02T12:12:56.909Z,36.19
2022-09-02T12:13:56.922Z,36.62
2022-09-02T12:14:56.940Z,36.49
2022-09-02T12:15:57.008Z,36.24
2022-09-02T12:16:56.928Z,35.02
2022-09-02T12:17:56.899Z,34.22
2022-09-02T12:18:56.918Z,34.51
2022-09-02T12:19:56.949Z,34.23
2022-09-02T12:20:56.905Z,34.72
2022-09-02T12:21:56.930Z,34.49
2022-09-02T12:22:56.948Z,33.70
2022-09-02T12:23:56.955Z,34.49
2022-09-02T12:24:56.973Z,34.89
2022-09-02T12:25:56.989Z,35.15
2022-09-02T12:26:57.019Z,36.39
2022-09-02T12:27:57.001Z,36.57
2022-09-02T12:28:57.035Z,36.82
2022-09-02T12:29:57.044Z,38.54
2022-09-02T12:30:57.182Z,39.23
2022-09-02T12:31:57.093Z,39.17
2022-09-02T12:32:57.125Z,38.68
2022-09-02T12:33:57.163Z,38.44
2022-09-02T12:34:57.223Z,39.57
2022-09-02T12:35:57.155Z,38.62
2022-09-02T12:36:57.205Z,37.32
2022-09-02T12:37:57.245Z,38.51
2022-09-02T12:38:57.273Z,37.20
2022-09-02T12:39:57.306Z,36.29
2022-09-02T12:40:57.436Z,36.49
2022-09-02T12:41:57.383Z,35.88
2022-09-02T12:42:57.409Z,35.35
2022-09-02T12:43:57.444Z,34.34
2022-09-02T12:44:57.472Z,34.46
2022-09-02T12:45:57.497Z,34.23
2022-09-02T12:46:57.544Z,33.34
2022-09-02T12:47:57.537Z,34.13
2022-09-02T12:48:57.556Z,33.42
2022-09-02T12:49:57.580Z,34.78
2022-09-02T12:50:57.569Z,35.82
2022-09-02T12:51:57.606Z,35.19
2022-09-02T12:52:57.632Z,34.63
2022-09-02T12:53:57.644Z,33.44
2022-09-02T12:54:57.726Z,33.74
2022-09-02T12:55:57.634Z,33.65
2022-09-02T12:56:57.675Z,33.47
2022-09-02T12:57:57.678Z,34.25
2022-09-02T12:59:02.340Z,33.06
2022-09-02T12:59:58.650Z,34.18
2022-09-02T13:00:57.662Z,34.08